Time;durP1;ratioP1;P1;durP2;ratioP2;P2;SDS_P1;SDS_P2;PMS_P1;PMS_P2;Temp;Humidity;BMP_temperature;BMP_pressure;BME280_temperature;BME280_humidity;BME280_pressure;Samples;Min_cycle;Max_cycle;Signal;HPM_P1;HPM_P2
2023/08/03 00:00:35;;;;;;;2.50;1.35;;;18.90;99.90;;;;;;5026707;28;20227;-76
2023/08/03 00:03:01;;;;;;;4.45;1.80;;;19.00;99.90;;;;;;5026595;28;20208;-76
2023/08/03 00:05:26;;;;;;;2.40;1.38;;;18.90;99.90;;;;;;5026223;28;20631;-76
2023/08/03 00:07:53;;;;;;;2.13;1.42;;;18.90;99.90;;;;;;5035231;28;20176;-76
2023/08/03 00:10:20;;;;;;;1.70;1.20;;;19.00;99.90;;;;;;5024813;28;20176;-76
2023/08/03 00:12:47;;;;;;;2.13;1.70;;;18.90;99.90;;;;;;5028446;28;20212;-76
2023/08/03 00:15:14;;;;;;;1.42;1.10;;;18.90;99.90;;;;;;5026888;28;20227;-76
2023/08/03 00:17:41;;;;;;;1.95;1.52;;;18.90;99.90;;;;;;5026131;28;20314;-76
2023/08/03 00:20:07;;;;;;;2.28;1.38;;;18.90;99.90;;;;;;5027121;28;20204;-75
2023/08/03 00:22:34;;;;;;;3.22;1.50;;;18.90;99.90;;;;;;5020851;28;20197;-76
2023/08/03 00:25:00;;;;;;;3.90;1.23;;;18.90;99.90;;;;;;5028148;28;20258;-76
2023/08/03 00:27:26;;;;;;;3.05;1.25;;;18.90;99.90;;;;;;5023824;28;20204;-77
2023/08/03 00:29:52;;;;;;;2.80;1.08;;;18.80;99.90;;;;;;5027340;28;20204;-76
2023/08/03 00:32:18;;;;;;;2.00;1.33;;;18.70;99.90;;;;;;5028027;28;20223;-77
2023/08/03 00:34:44;;;;;;;1.48;0.93;;;18.70;99.90;;;;;;5026904;28;20180;-76
2023/08/03 00:37:13;;;;;;;2.25;1.42;;;18.70;99.90;;;;;;5028565;28;20181;-77
2023/08/03 00:39:38;;;;;;;2.42;1.00;;;18.50;99.90;;;;;;5026489;28;20208;-77
2023/08/03 00:42:05;;;;;;;2.05;1.20;;;18.60;99.90;;;;;;5027714;28;20254;-76
2023/08/03 00:44:31;;;;;;;2.20;1.00;;;18.60;99.90;;;;;;5028130;28;20215;-76
2023/08/03 00:46:57;;;;;;;2.78;1.40;;;18.60;99.90;;;;;;5026613;28;20247;-76
2023/08/03 00:49:27;;;;;;;1.95;1.13;;;18.50;99.90;;;;;;5022195;28;20588;-77
2023/08/03 00:51:57;;;;;;;2.20;1.42;;;18.60;99.90;;;;;;5026491;28;20240;-75
2023/08/03 00:54:23;;;;;;;1.58;1.30;;;18.60;99.90;;;;;;5028202;28;20211;-77
2023/08/03 00:56:48;;;;;;;1.55;1.25;;;18.60;99.90;;;;;;5026558;28;20216;-77
2023/08/03 00:59:14;;;;;;;1.33;1.02;;;18.60;99.90;;;;;;5035124;28;20279;-76
2023/08/03 01:01:41;;;;;;;1.60;1.35;;;18.60;99.90;;;;;;5026510;28;20184;-76
2023/08/03 01:04:07;;;;;;;2.42;1.17;;;18.70;99.90;;;;;;5031990;28;20302;-76
2023/08/03 01:06:33;;;;;;;1.73;1.58;;;18.70;99.90;;;;;;5027843;28;20291;-77
2023/08/03 01:09:00;;;;;;;1.85;1.40;;;18.70;99.90;;;;;;5031613;28;20214;-77
2023/08/03 01:11:29;;;;;;;1.98;1.20;;;18.70;99.90;;;;;;5031713;28;20223;-77
2023/08/03 01:13:55;;;;;;;2.70;1.10;;;18.70;99.90;;;;;;5031742;28;20267;-74
2023/08/03 01:16:23;;;;;;;1.48;1.38;;;18.60;99.90;;;;;;5031032;28;20214;-76
2023/08/03 01:18:49;;;;;;;1.75;1.08;;;18.60;99.90;;;;;;5027918;28;20204;-77
2023/08/03 01:21:18;;;;;;;3.53;1.67;;;18.50;99.90;;;;;;5031107;28;20204;-77
2023/08/03 01:23:44;;;;;;;1.95;1.10;;;18.50;99.90;;;;;;5046677;28;20682;-76
2023/08/03 01:26:09;;;;;;;2.00;1.30;;;18.60;99.90;;;;;;5031158;28;20239;-76
2023/08/03 01:28:35;;;;;;;3.28;1.17;;;18.60;99.90;;;;;;5043138;28;20172;-77
2023/08/03 01:31:01;;;;;;;2.85;1.58;;;18.60;99.90;;;;;;5029616;28;20214;-76
2023/08/03 01:33:27;;;;;;;2.28;1.10;;;18.60;99.90;;;;;;5026936;28;20204;-77
2023/08/03 01:35:52;;;;;;;2.33;1.38;;;18.60;99.90;;;;;;5031415;28;20352;-77
2023/08/03 01:38:18;;;;;;;4.63;1.45;;;18.60;99.90;;;;;;5031225;28;20218;-76
2023/08/03 01:40:44;;;;;;;2.15;1.40;;;18.50;99.90;;;;;;5029676;28;20710;-76
2023/08/03 01:43:09;;;;;;;2.45;1.27;;;18.50;99.90;;;;;;5031038;28;20180;-76
2023/08/03 01:45:36;;;;;;;1.73;1.27;;;18.40;99.90;;;;;;5031048;28;20244;-76
2023/08/03 01:48:02;;;;;;;2.50;1.27;;;18.30;99.90;;;;;;5024977;28;20201;-77
2023/08/03 01:50:28;;;;;;;1.63;1.20;;;18.30;99.90;;;;;;5030962;28;20219;-77
2023/08/03 01:52:54;;;;;;;2.63;1.42;;;18.30;99.90;;;;;;5030734;28;20172;-76
2023/08/03 01:55:19;;;;;;;4.45;1.60;;;18.30;99.90;;;;;;5030932;28;20703;-76
2023/08/03 01:57:45;;;;;;;3.97;2.20;;;18.10;99.90;;;;;;5030925;28;20206;-77
2023/08/03 02:00:11;;;;;;;4.40;2.17;;;18.10;99.90;;;;;;5030715;28;20659;-76
2023/08/03 02:02:37;;;;;;;3.60;1.80;;;18.20;99.90;;;;;;5030404;28;20200;-77
2023/08/03 02:05:03;;;;;;;4.63;1.83;;;18.10;99.90;;;;;;5030507;28;20789;-76
2023/08/03 02:07:55;;;;;;;2.40;1.50;;;18.10;99.90;;;;;;5031192;28;20515;-76
2023/08/03 02:10:23;;;;;;;2.72;1.60;;;18.00;99.90;;;;;;5030333;28;20598;-76
2023/08/03 02:12:49;;;;;;;1.40;1.30;;;18.00;99.90;;;;;;5029869;28;20204;-76
2023/08/03 02:15:15;;;;;;;6.32;1.70;;;18.00;99.90;;;;;;5026571;28;20308;-76
2023/08/03 02:17:42;;;;;;;3.10;1.55;;;18.10;99.90;;;;;;5028120;28;20736;-76
2023/08/03 02:20:08;;;;;;;2.72;1.70;;;18.00;99.90;;;;;;5026078;28;20239;-75
2023/08/03 02:22:34;;;;;;;2.05;1.40;;;18.10;99.90;;;;;;5030603;28;20238;-76
2023/08/03 02:25:00;;;;;;;4.05;1.77;;;18.10;99.90;;;;;;5030362;28;20200;-76
2023/08/03 02:27:26;;;;;;;4.32;1.83;;;18.10;99.90;;;;;;5036750;28;20218;-76
2023/08/03 02:29:51;;;;;;;3.78;1.70;;;18.20;99.90;;;;;;5030034;28;20204;-76
2023/08/03 02:32:19;;;;;;;3.75;1.50;;;18.20;99.90;;;;;;5036697;28;20212;-76
2023/08/03 02:34:45;;;;;;;3.38;1.50;;;18.10;99.90;;;;;;5028692;28;20176;-76
2023/08/03 02:37:10;;;;;;;4.07;1.60;;;18.20;99.90;;;;;;5023462;28;20182;-76
2023/08/03 02:39:36;;;;;;;1.63;1.27;;;18.10;99.90;;;;;;5045438;28;20283;-76
2023/08/03 02:42:02;;;;;;;2.38;1.67;;;18.20;99.90;;;;;;5025448;28;20212;-75
2023/08/03 02:44:27;;;;;;;3.20;1.65;;;18.10;99.90;;;;;;5029540;28;20207;-76
2023/08/03 02:46:53;;;;;;;3.17;1.50;;;18.20;99.90;;;;;;5041610;23;20255;-73
2023/08/03 02:49:18;;;;;;;2.80;1.50;;;18.20;99.90;;;;;;5028262;28;20180;-73
2023/08/03 02:51:44;;;;;;;2.72;1.33;;;18.20;99.90;;;;;;5029131;28;20670;-73
2023/08/03 02:54:10;;;;;;;2.65;1.40;;;18.20;99.90;;;;;;5029086;28;20200;-74
2023/08/03 02:56:35;;;;;;;4.53;1.85;;;18.10;99.90;;;;;;5029121;28;20262;-76
2023/08/03 02:59:01;;;;;;;5.20;1.80;;;18.20;99.90;;;;;;5025394;28;20224;-74
2023/08/03 03:01:26;;;;;;;3.35;2.10;;;18.10;99.90;;;;;;5028241;28;20643;-73
2023/08/03 03:03:52;;;;;;;4.60;2.03;;;18.00;99.90;;;;;;5029778;28;20239;-73
2023/08/03 03:06:17;;;;;;;4.63;2.10;;;18.00;99.90;;;;;;5027263;28;20215;-73
2023/08/03 03:08:43;;;;;;;3.72;1.70;;;18.00;99.90;;;;;;5025377;28;20219;-74
2023/08/03 03:11:09;;;;;;;3.63;1.80;;;17.90;99.90;;;;;;5029004;28;20212;-73
2023/08/03 03:13:34;;;;;;;3.20;1.95;;;18.00;99.90;;;;;;5028881;28;20559;-74
2023/08/03 03:16:00;;;;;;;4.63;1.80;;;17.90;99.90;;;;;;5028673;28;20211;-73
2023/08/03 03:18:25;;;;;;;2.75;1.75;;;18.00;99.90;;;;;;5026334;28;20205;-73
2023/08/03 03:20:51;;;;;;;2.72;1.55;;;18.00;99.90;;;;;;5044295;28;20192;-73
2023/08/03 03:23:16;;;;;;;4.00;2.10;;;18.10;99.90;;;;;;5028543;28;20666;-74
2023/08/03 03:25:42;;;;;;;1.65;1.50;;;18.00;99.90;;;;;;5027532;28;20177;-73
2023/08/03 03:28:08;;;;;;;5.78;1.95;;;18.10;99.90;;;;;;5028123;28;20196;-75
2023/08/03 03:30:34;;;;;;;3.33;1.50;;;18.00;99.90;;;;;;5023884;28;20200;-73
2023/08/03 03:32:59;;;;;;;2.75;1.88;;;18.10;99.90;;;;;;5028792;28;20196;-73
2023/08/03 03:35:25;;;;;;;3.30;1.90;;;18.10;99.90;;;;;;5036739;28;20251;-73
2023/08/03 03:37:51;;;;;;;2.17;1.65;;;18.10;99.90;;;;;;5029029;28;20672;-74
2023/08/03 03:40:16;;;;;;;2.35;1.33;;;18.00;99.90;;;;;;5028835;28;20184;-73
2023/08/03 03:42:42;;;;;;;2.75;1.50;;;18.00;99.90;;;;;;5026041;28;20203;-73
2023/08/03 03:45:08;;;;;;;3.08;1.60;;;18.10;99.90;;;;;;5028752;28;20208;-73
2023/08/03 03:47:33;;;;;;;3.05;1.60;;;18.10;99.90;;;;;;5028186;28;20303;-73
2023/08/03 03:49:59;;;;;;;4.30;2.08;;;18.00;99.90;;;;;;5028396;28;20204;-73
2023/08/03 03:52:25;;;;;;;5.18;2.15;;;18.10;99.90;;;;;;5028726;28;20255;-73
2023/08/03 03:54:51;;;;;;;6.80;1.80;;;18.10;99.90;;;;;;5026897;28;20208;-73
2023/08/03 03:57:16;;;;;;;5.13;1.93;;;18.20;99.90;;;;;;5025908;28;20420;-74
2023/08/03 03:59:42;;;;;;;3.50;1.80;;;18.20;99.90;;;;;;5026611;28;20339;-74
2023/08/03 04:02:08;;;;;;;2.85;1.60;;;18.30;99.90;;;;;;5026876;28;20200;-73
2023/08/03 04:04:33;;;;;;;4.97;2.15;;;18.30;99.90;;;;;;5037719;28;20183;-73
2023/08/03 04:06:59;;;;;;;5.43;1.77;;;18.40;99.90;;;;;;5028394;28;20294;-73
2023/08/03 04:09:25;;;;;;;5.30;1.38;;;18.50;99.90;;;;;;5027803;28;20307;-73
2023/08/03 04:11:50;;;;;;;4.68;2.05;;;18.50;99.90;;;;;;5028211;28;20287;-73
2023/08/03 04:14:16;;;;;;;2.40;1.52;;;18.60;99.90;;;;;;5027659;28;20208;-73
2023/08/03 04:16:41;;;;;;;4.03;1.75;;;18.90;99.90;;;;;;5027506;28;20196;-73
2023/08/03 04:19:07;;;;;;;6.72;1.63;;;18.80;99.90;;;;;;5027472;28;20211;-72
2023/08/03 04:21:33;;;;;;;4.72;1.40;;;18.70;99.90;;;;;;5035321;28;20208;-75
2023/08/03 04:23:58;;;;;;;4.35;1.83;;;18.80;99.90;;;;;;5027132;28;20203;-73
2023/08/03 04:26:24;;;;;;;6.22;1.80;;;18.90;99.90;;;;;;5027878;28;20208;-74
2023/08/03 04:28:49;;;;;;;5.15;1.67;;;18.90;99.90;;;;;;5028058;28;20180;-73
2023/08/03 04:31:15;;;;;;;4.65;1.80;;;18.90;99.90;;;;;;5026682;28;20177;-73
2023/08/03 04:33:40;;;;;;;4.68;2.47;;;19.10;99.90;;;;;;5043321;28;20196;-73
2023/08/03 04:36:06;;;;;;;4.10;1.70;;;19.10;99.90;;;;;;5028046;28;20250;-73
2023/08/03 04:38:32;;;;;;;6.20;1.67;;;19.20;99.90;;;;;;5029198;28;20610;-74
2023/08/03 04:41:00;;;;;;;2.33;1.50;;;19.40;99.90;;;;;;5032481;28;20585;-71
2023/08/03 04:43:27;;;;;;;4.22;2.00;;;19.30;99.90;;;;;;5028810;28;20179;-73
2023/08/03 04:45:53;;;;;;;6.00;2.22;;;19.30;99.90;;;;;;5028738;28;20215;-73
2023/08/03 04:48:18;;;;;;;7.88;1.85;;;19.30;99.90;;;;;;5031985;28;20212;-75
2023/08/03 04:50:44;;;;;;;5.80;1.75;;;19.10;99.90;;;;;;5032221;28;20214;-74
2023/08/03 04:53:09;;;;;;;4.75;1.83;;;19.00;99.90;;;;;;5031989;28;20214;-73
2023/08/03 04:55:36;;;;;;;5.63;2.00;;;19.00;99.90;;;;;;5032139;28;20243;-73
2023/08/03 04:58:02;;;;;;;5.25;1.77;;;19.00;99.90;;;;;;5026264;28;20208;-73
2023/08/03 05:00:27;;;;;;;7.45;2.65;;;19.00;99.90;;;;;;5031711;28;20215;-73
2023/08/03 05:02:53;;;;;;;7.20;2.70;;;19.20;99.90;;;;;;5031792;28;20204;-73
2023/08/03 05:05:19;;;;;;;5.47;1.85;;;19.30;99.90;;;;;;5031732;28;20208;-72
2023/08/03 05:07:44;;;;;;;4.95;1.67;;;19.30;99.90;;;;;;5031464;28;20196;-73
2023/08/03 05:10:10;;;;;;;7.00;2.05;;;19.30;99.90;;;;;;5031994;28;20172;-73
2023/08/03 05:12:38;;;;;;;4.47;2.38;;;19.30;99.90;;;;;;5030931;28;20216;-73
2023/08/03 05:15:04;;;;;;;6.40;2.30;;;19.40;99.90;;;;;;5030146;28;20249;-73
2023/08/03 05:17:30;;;;;;;5.35;2.10;;;19.60;99.90;;;;;;5029123;28;20589;-74
2023/08/03 05:19:55;;;;;;;4.95;1.83;;;21.60;99.90;;;;;;5029830;28;20180;-73
2023/08/03 05:22:21;;;;;;;6.60;3.00;;;23.00;99.90;;;;;;5031222;28;20191;-74
2023/08/03 05:24:46;;;;;;;6.60;2.30;;;22.80;99.90;;;;;;5046669;28;20196;-74
2023/08/03 05:27:12;;;;;;;7.53;2.80;;;23.20;99.90;;;;;;5027720;28;20231;-73
2023/08/03 05:29:38;;;;;;;4.45;1.73;;;22.50;99.90;;;;;;5031403;28;20303;-73
2023/08/03 05:32:03;;;;;;;3.25;1.73;;;23.50;99.90;;;;;;5031251;28;20390;-73
2023/08/03 05:34:30;;;;;;;7.47;2.33;;;25.40;99.90;;;;;;5031348;28;20172;-73
2023/08/03 05:36:56;;;;;;;6.22;2.22;;;26.70;99.90;;;;;;5030943;28;20212;-73
2023/08/03 05:39:26;;;;;;;7.05;1.85;;;28.00;99.90;;;;;;5030877;28;20231;-73
2023/08/03 05:41:51;;;;;;;3.83;1.80;;;28.20;99.90;;;;;;5030933;28;20211;-73
2023/08/03 05:44:17;;;;;;;6.22;1.60;;;27.50;99.90;;;;;;5029851;28;20590;-75
2023/08/03 05:46:44;;;;;;;5.97;1.70;;;26.30;99.90;;;;;;5030837;28;20207;-73
2023/08/03 05:49:09;;;;;;;5.28;1.90;;;24.70;99.90;;;;;;5030050;28;20179;-74
2023/08/03 05:51:35;;;;;;;4.68;1.92;;;24.00;99.90;;;;;;5044158;28;20213;-73
2023/08/03 05:54:01;;;;;;;7.55;1.77;;;24.90;99.90;;;;;;5030748;28;20208;-73
2023/08/03 05:56:26;;;;;;;7.40;1.70;;;25.50;99.90;;;;;;5028138;28;20216;-73
2023/08/03 05:58:52;;;;;;;5.05;2.25;;;26.80;99.90;;;;;;5030753;28;20176;-74
2023/08/03 06:01:22;;;;;;;5.00;2.05;;;27.70;99.90;;;;;;5031064;28;20210;-73
2023/08/03 06:03:51;;;;;;;5.90;1.63;;;28.10;99.90;;;;;;5029591;28;20200;-74
2023/08/03 06:06:21;;;;;;;2.70;1.55;;;28.70;99.90;;;;;;5030638;28;20204;-74
2023/08/03 06:08:57;;;;;;;2.35;1.23;;;29.20;99.90;;;;;;5030306;28;20280;-74
2023/08/03 06:11:23;;;;;;;5.60;2.30;;;29.30;99.90;;;;;;5026846;28;20203;-74
2023/08/03 06:13:49;;;;;;;6.28;1.55;;;29.70;99.90;;;;;;5025148;28;20165;-75
2023/08/03 06:16:15;;;;;;;5.15;1.40;;;30.60;99.90;;;;;;5030053;28;20253;-75
2023/08/03 06:18:54;;;;;;;3.63;1.75;;;31.20;99.90;;;;;;5028133;28;20208;-75
2023/08/03 06:21:22;;;;;;;4.63;1.70;;;30.90;99.90;;;;;;5026789;28;20235;-74
2023/08/03 06:23:50;;;;;;;4.93;1.60;;;30.20;99.90;;;;;;5030044;28;20219;-73
2023/08/03 06:26:17;;;;;;;5.88;1.92;;;29.60;99.90;;;;;;5029930;28;20220;-74
2023/08/03 06:28:49;;;;;;;4.15;1.80;;;29.80;99.90;;;;;;5029823;28;20271;-74
2023/08/03 06:31:32;;;;;;;5.88;1.63;;;30.80;99.90;;;;;;5030662;28;20181;-74
2023/08/03 06:33:57;;;;;;;3.47;1.65;;;32.00;99.90;;;;;;5029346;28;20203;-75
2023/08/03 06:36:27;;;;;;;4.40;1.40;;;31.50;99.90;;;;;;5029834;28;20212;-74
2023/08/03 06:38:57;;;;;;;3.65;1.55;;;31.70;99.90;;;;;;5044025;28;20208;-74
2023/08/03 06:41:24;;;;;;;4.55;1.58;;;30.70;99.90;;;;;;5028409;28;20220;-74
2023/08/03 06:43:51;;;;;;;12.32;2.30;;;30.60;99.90;;;;;;5036541;28;20801;-75
2023/08/03 06:46:17;;;;;;;3.95;1.70;;;32.00;99.90;;;;;;5030144;28;20682;-75
2023/08/03 06:48:43;;;;;;;6.07;1.70;;;32.30;99.90;;;;;;5037289;28;20222;-75
2023/08/03 06:51:08;;;;;;;9.98;2.42;;;31.40;99.90;;;;;;5029736;28;20975;-74
2023/08/03 06:53:34;;;;;;;4.03;1.63;;;31.30;99.90;;;;;;5029803;28;20643;-74
2023/08/03 06:56:00;;;;;;;4.03;1.50;;;31.30;99.90;;;;;;5029279;28;20299;-74
2023/08/03 06:58:25;;;;;;;4.65;1.20;;;30.50;99.90;;;;;;5028521;28;20168;-74
2023/08/03 07:00:51;;;;;;;3.80;1.45;;;28.90;99.90;;;;;;5041442;28;20262;-74
2023/08/03 07:03:17;;;;;;;2.88;1.13;;;27.00;99.90;;;;;;5029307;28;20212;-73
2023/08/03 07:05:43;;;;;;;5.65;1.20;;;26.30;99.90;;;;;;5029370;28;20814;-72
2023/08/03 07:08:09;;;;;;;5.07;1.30;;;25.40;99.90;;;;;;5044648;28;20205;-74
2023/08/03 07:10:36;;;;;;;6.07;1.48;;;24.80;99.90;;;;;;5029627;28;20177;-73
2023/08/03 07:13:03;;;;;;;4.28;1.40;;;24.60;99.90;;;;;;5044610;28;20201;-74
2023/08/03 07:15:33;;;;;;;3.60;1.40;;;24.00;99.90;;;;;;5029596;28;20216;-73
2023/08/03 07:18:03;;;;;;;5.25;1.40;;;23.80;99.90;;;;;;5028660;28;20713;-73
2023/08/03 07:20:28;;;;;;;4.68;1.52;;;23.80;99.90;;;;;;5029321;28;20266;-73
2023/08/03 07:22:54;;;;;;;4.00;1.38;;;23.60;99.90;;;;;;5027613;28;20210;-73
2023/08/03 07:25:20;;;;;;;2.63;1.27;;;23.40;99.90;;;;;;5031800;28;20191;-74
2023/08/03 07:27:46;;;;;;;6.53;1.60;;;23.10;99.90;;;;;;5024475;28;20296;-73
2023/08/03 07:30:12;;;;;;;2.72;1.27;;;23.10;99.90;;;;;;5027717;28;20250;-73
2023/08/03 07:32:38;;;;;;;3.15;1.20;;;22.80;99.90;;;;;;5028750;28;20265;-72
2023/08/03 07:35:04;;;;;;;3.13;1.17;;;22.80;99.90;;;;;;5028753;28;20634;-74
2023/08/03 07:37:29;;;;;;;2.90;1.15;;;22.90;99.90;;;;;;5029476;28;20682;-73
2023/08/03 07:39:55;;;;;;;4.80;1.27;;;23.00;99.90;;;;;;5035584;28;20246;-73
2023/08/03 07:42:20;;;;;;;4.25;1.30;;;23.10;99.90;;;;;;5028657;28;20597;-73
2023/08/03 07:44:46;;;;;;;4.60;1.17;;;23.70;99.90;;;;;;5028462;28;20303;-73
2023/08/03 07:47:12;;;;;;;5.00;1.00;;;23.80;99.90;;;;;;5026148;28;20945;-74
2023/08/03 07:49:38;;;;;;;5.50;1.20;;;23.80;99.90;;;;;;5028613;28;20172;-74
2023/08/03 07:52:04;;;;;;;2.28;0.90;;;24.00;99.90;;;;;;5028848;28;20241;-73
2023/08/03 07:54:30;;;;;;;3.58;1.23;;;24.00;99.90;;;;;;5028651;28;20208;-74
2023/08/03 07:56:56;;;;;;;4.30;1.13;;;24.20;99.90;;;;;;5038592;28;20706;-74
2023/08/03 07:59:22;;;;;;;1.42;0.70;;;24.60;99.90;;;;;;5028883;28;20243;-74
2023/08/03 08:01:48;;;;;;;6.32;1.38;;;26.10;99.90;;;;;;5028440;28;20172;-73
2023/08/03 08:04:14;;;;;;;3.50;0.82;;;26.50;99.90;;;;;;5029245;28;20172;-74
2023/08/03 08:06:40;;;;;;;5.15;0.88;;;27.80;99.90;;;;;;5028381;28;20216;-74
2023/08/03 08:09:06;;;;;;;3.60;0.90;;;29.00;99.90;;;;;;5028612;28;20257;-74
2023/08/03 08:11:32;;;;;;;10.10;2.47;;;29.00;99.90;;;;;;5026457;28;20208;-73
2023/08/03 08:13:59;;;;;;;9.23;1.40;;;28.10;99.90;;;;;;5035014;28;20222;-74
2023/08/03 08:16:25;;;;;;;5.65;1.08;;;27.80;99.90;;;;;;5027244;28;20698;-74
2023/08/03 08:18:51;;;;;;;27.30;4.47;;;27.20;99.90;;;;;;5027887;28;20219;-73
2023/08/03 08:21:17;;;;;;;2.60;0.90;;;26.60;99.90;;;;;;5024174;28;20286;-73
2023/08/03 08:23:42;;;;;;;10.15;2.58;;;25.80;99.90;;;;;;5024316;28;20221;-73
2023/08/03 08:26:09;;;;;;;1.55;0.93;;;25.70;99.90;;;;;;5026918;28;20223;-73
2023/08/03 08:28:35;;;;;;;1.90;1.00;;;25.80;99.90;;;;;;5025334;28;20267;-73
2023/08/03 08:31:01;;;;;;;3.28;0.75;;;25.90;99.90;;;;;;5026537;28;20840;-72
2023/08/03 08:33:26;;;;;;;1.50;0.73;;;25.30;99.90;;;;;;5026692;28;20254;-73
2023/08/03 08:35:52;;;;;;;1.65;0.52;;;24.90;99.90;;;;;;5027740;28;20224;-72
2023/08/03 08:38:18;;;;;;;1.55;0.70;;;24.80;99.90;;;;;;5028136;28;20208;-74
2023/08/03 08:40:47;;;;;;;2.05;0.82;;;24.90;99.90;;;;;;5035028;28;20181;-73
2023/08/03 08:43:13;;;;;;;1.45;0.73;;;25.80;99.90;;;;;;5028257;28;20234;-73
2023/08/03 08:45:40;;;;;;;3.15;0.75;;;27.20;99.90;;;;;;5027255;28;20226;-73
2023/08/03 08:48:05;;;;;;;2.05;0.70;;;28.30;99.90;;;;;;5028674;28;20307;-73
2023/08/03 08:50:32;;;;;;;2.53;0.75;;;28.60;99.90;;;;;;5026829;28;20334;-74
2023/08/03 08:52:58;;;;;;;2.17;0.52;;;28.90;99.90;;;;;;5036739;28;20242;-74
2023/08/03 08:55:29;;;;;;;2.13;0.73;;;29.00;99.90;;;;;;5028554;28;20192;-74
2023/08/03 08:57:56;;;;;;;2.72;0.50;;;29.10;99.90;;;;;;5024899;28;20284;-74
2023/08/03 09:00:26;;;;;;;4.13;0.43;;;28.90;99.90;;;;;;5026572;28;20204;-74
2023/08/03 09:02:56;;;;;;;3.38;0.85;;;28.40;99.90;;;;;;5025795;28;20211;-74
2023/08/03 09:05:26;;;;;;;0.30;0.30;;;28.30;99.90;;;;;;5027860;28;20350;-74
2023/08/03 09:08:14;;;;;;;1.52;0.40;;;28.10;99.90;;;;;;5027914;28;20196;-74
2023/08/03 09:10:52;;;;;;;1.17;0.50;;;27.90;99.90;;;;;;5027971;28;20187;-73
2023/08/03 09:13:32;;;;;;;0.60;0.50;;;28.20;99.90;;;;;;5024814;28;20211;-74
2023/08/03 09:15:59;;;;;;;1.02;0.68;;;28.30;99.90;;;;;;5035388;28;20230;-74
2023/08/03 09:18:27;;;;;;;1.38;0.63;;;29.40;99.90;;;;;;5026498;28;20201;-74
2023/08/03 09:21:14;;;;;;;1.88;0.90;;;30.10;99.90;;;;;;5022908;28;20201;-74
2023/08/03 09:23:41;;;;;;;1.95;0.65;;;31.00;99.90;;;;;;5025952;28;20295;-75
2023/08/03 09:26:08;;;;;;;3.42;0.77;;;30.50;99.90;;;;;;5030143;28;20702;-73
2023/08/03 09:28:40;;;;;;;1.45;0.77;;;29.40;99.90;;;;;;5027204;28;20231;-73
2023/08/03 09:31:07;;;;;;;1.13;0.60;;;28.30;99.90;;;;;;5031302;28;20572;-73
2023/08/03 09:33:33;;;;;;;2.70;0.75;;;27.30;99.90;;;;;;5029951;28;20694;-74
2023/08/03 09:36:13;;;;;;;2.78;0.32;;;26.70;99.90;;;;;;5031001;28;20238;-73
2023/08/03 09:38:40;;;;;;;1.13;0.75;;;26.30;99.90;;;;;;5029699;28;20577;-73
2023/08/03 09:41:06;;;;;;;1.77;0.65;;;25.90;99.90;;;;;;5030576;28;20205;-74
2023/08/03 09:43:32;;;;;;;4.45;0.90;;;25.80;99.90;;;;;;5029879;28;20183;-73
2023/08/03 09:45:58;;;;;;;2.15;1.15;;;25.70;99.90;;;;;;5038720;28;20212;-73
2023/08/03 09:48:25;;;;;;;2.83;0.75;;;25.70;99.90;;;;;;5030785;28;20690;-73
2023/08/03 09:50:58;;;;;;;2.10;0.45;;;25.10;99.90;;;;;;5029767;28;20694;-73
2023/08/03 09:53:28;;;;;;;1.83;0.50;;;24.70;99.90;;;;;;5030787;28;20211;-73
2023/08/03 09:55:58;;;;;;;1.30;0.40;;;24.80;99.90;;;;;;5029367;28;20235;-73
2023/08/03 09:58:31;;;;;;;1.83;0.73;;;25.60;99.90;;;;;;5030040;28;20182;-74
2023/08/03 10:00:59;;;;;;;4.03;0.80;;;26.40;99.90;;;;;;5029907;28;20204;-74
2023/08/03 10:03:27;;;;;;;1.13;0.50;;;26.80;99.90;;;;;;5046413;28;20204;-74
2023/08/03 10:06:02;;;;;;;3.97;0.70;;;27.00;99.90;;;;;;5029074;28;20285;-73
2023/08/03 10:08:51;;;;;;;1.63;0.90;;;27.10;99.90;;;;;;5029183;28;20748;-75
2023/08/03 10:11:19;;;;;;;2.65;0.73;;;27.10;99.90;;;;;;5024869;28;20220;-75
2023/08/03 10:13:50;;;;;;;2.72;0.60;;;27.30;99.90;;;;;;5030559;28;20183;-75
2023/08/03 10:16:17;;;;;;;0.70;0.40;;;27.00;99.90;;;;;;5025072;28;20215;-73
2023/08/03 10:18:45;;;;;;;1.50;0.80;;;26.50;99.90;;;;;;5030576;28;20294;-74
2023/08/03 10:21:11;;;;;;;2.75;0.80;;;26.60;99.90;;;;;;5030124;28;20211;-75
2023/08/03 10:23:40;;;;;;;2.00;0.70;;;26.30;99.90;;;;;;5030496;28;20786;-74
2023/08/03 10:26:09;;;;;;;1.95;0.80;;;26.40;99.90;;;;;;5028913;28;20708;-74
2023/08/03 10:28:40;;;;;;;2.47;1.20;;;26.50;99.90;;;;;;5025658;28;20172;-74
2023/08/03 10:31:18;;;;;;;1.02;0.95;;;26.80;99.90;;;;;;5030000;28;20693;-74
2023/08/03 10:33:46;;;;;;;2.08;0.98;;;26.20;99.90;;;;;;5025921;28;20243;-74
2023/08/03 10:36:30;;;;;;;2.10;0.50;;;25.90;99.90;;;;;;5029043;28;20737;-74
2023/08/03 10:38:56;;;;;;;4.05;0.70;;;25.60;99.90;;;;;;5028652;28;20199;-75
2023/08/03 10:41:24;;;;;;;3.17;0.60;;;25.30;99.90;;;;;;5029788;28;20254;-74
2023/08/03 10:44:09;;;;;;;1.50;0.60;;;25.30;99.90;;;;;;5029904;28;20176;-72
2023/08/03 10:46:42;;;;;;;2.88;1.00;;;25.30;99.90;;;;;;5026642;28;20199;-75
2023/08/03 10:49:20;;;;;;;3.08;0.75;;;25.70;99.90;;;;;;5044430;28;20553;-72
2023/08/03 10:51:46;;;;;;;1.15;0.52;;;26.10;99.90;;;;;;5029288;28;20700;-75
2023/08/03 10:54:12;;;;;;;1.67;0.68;;;26.10;99.90;;;;;;5036714;28;20274;-74
2023/08/03 10:56:38;;;;;;;3.45;1.13;;;26.20;99.90;;;;;;5025684;28;20582;-74
2023/08/03 10:59:04;;;;;;;3.42;1.10;;;26.00;99.90;;;;;;5036746;28;20204;-74
2023/08/03 11:01:31;;;;;;;3.92;2.00;;;25.70;99.90;;;;;;5030061;28;20211;-74
2023/08/03 11:03:58;;;;;;;1.67;0.80;;;25.60;99.90;;;;;;5042654;28;20274;-74
2023/08/03 11:06:27;;;;;;;0.77;0.52;;;25.40;99.90;;;;;;5029528;28;20778;-74
2023/08/03 11:08:54;;;;;;;2.53;0.60;;;25.10;99.90;;;;;;5036383;28;20292;-74
2023/08/03 11:11:32;;;;;;;3.13;0.60;;;25.10;99.90;;;;;;5029406;28;20262;-74
2023/08/03 11:13:58;;;;;;;1.20;0.98;;;25.20;99.90;;;;;;5029204;28;20303;-74
2023/08/03 11:16:23;;;;;;;1.25;0.50;;;25.60;99.90;;;;;;5044677;28;20207;-74
2023/08/03 11:18:49;;;;;;;1.23;0.60;;;25.90;99.90;;;;;;5029302;28;20205;-75
2023/08/03 11:21:15;;;;;;;3.13;1.05;;;25.80;99.90;;;;;;5028804;28;20200;-74
2023/08/03 11:23:41;;;;;;;2.63;0.80;;;25.70;99.90;;;;;;5029119;28;20239;-74
2023/08/03 11:26:11;;;;;;;3.00;1.58;;;25.50;99.90;;;;;;5027450;28;20570;-72
2023/08/03 11:28:43;;;;;;;1.90;0.70;;;25.30;99.90;;;;;;5026285;28;20179;-74
2023/08/03 11:31:20;;;;;;;1.90;0.57;;;24.50;99.90;;;;;;5028763;28;20195;-74
2023/08/03 11:33:53;;;;;;;5.25;1.20;;;24.70;99.90;;;;;;5027681;28;20599;-75
2023/08/03 11:36:19;;;;;;;2.30;1.08;;;24.70;99.90;;;;;;5027890;28;20208;-74
2023/08/03 11:38:45;;;;;;;1.23;0.82;;;24.80;99.90;;;;;;5027386;28;20196;-75
2023/08/03 11:41:13;;;;;;;1.02;0.80;;;24.70;99.90;;;;;;5039115;28;20683;-75
2023/08/03 11:43:39;;;;;;;3.13;0.85;;;24.40;99.90;;;;;;5028939;28;20164;-74
2023/08/03 11:46:04;;;;;;;5.03;0.85;;;24.60;99.90;;;;;;5035990;28;20196;-74
2023/08/03 11:48:30;;;;;;;2.05;0.80;;;25.00;99.90;;;;;;5044220;28;20212;-75
2023/08/03 11:50:57;;;;;;;1.30;0.70;;;25.30;99.90;;;;;;5027581;28;20215;-74
2023/08/03 11:53:25;;;;;;;2.17;0.70;;;25.10;99.90;;;;;;5044112;28;20291;-75
2023/08/03 11:55:51;;;;;;;2.05;1.20;;;25.10;99.90;;;;;;5044387;28;20609;-74
2023/08/03 11:58:16;;;;;;;2.20;0.70;;;25.20;99.90;;;;;;5022616;28;20638;-75
2023/08/03 12:00:43;;;;;;;2.15;0.65;;;25.10;99.90;;;;;;5028880;28;20250;-74
2023/08/03 12:03:09;;;;;;;3.75;1.05;;;25.00;99.90;;;;;;5028443;28;20211;-75
2023/08/03 12:05:56;;;;;;;0.82;0.60;;;24.80;99.90;;;;;;5024739;28;20232;-74
2023/08/03 12:08:21;;;;;;;1.05;0.80;;;24.70;99.90;;;;;;5027343;28;20203;-75
2023/08/03 12:11:02;;;;;;;3.22;0.85;;;24.50;99.90;;;;;;5028810;28;20234;-74
2023/08/03 12:13:27;;;;;;;1.50;0.70;;;24.60;99.90;;;;;;5028910;28;20199;-75
2023/08/03 12:15:53;;;;;;;3.97;1.48;;;24.60;99.90;;;;;;5027266;28;20700;-74
2023/08/03 12:18:21;;;;;;;1.00;0.75;;;24.80;99.90;;;;;;5028491;28;20208;-74
2023/08/03 12:20:49;;;;;;;3.17;0.90;;;24.70;99.90;;;;;;5027291;28;20227;-74
2023/08/03 12:23:18;;;;;;;2.05;0.80;;;24.70;99.90;;;;;;5028055;28;20695;-74
2023/08/03 12:25:44;;;;;;;3.45;0.90;;;24.30;99.90;;;;;;5028813;28;20207;-75
2023/08/03 12:28:10;;;;;;;5.00;0.85;;;24.20;99.90;;;;;;5026223;28;20192;-74
2023/08/03 12:30:36;;;;;;;7.25;2.05;;;24.20;99.90;;;;;;5028368;28;20621;-74
2023/08/03 12:33:02;;;;;;;2.65;0.77;;;24.10;99.90;;;;;;5025414;28;20671;-75
2023/08/03 12:35:27;;;;;;;2.28;1.23;;;24.20;99.90;;;;;;5026448;28;20303;-74
2023/08/03 12:37:53;;;;;;;8.13;0.90;;;24.20;99.90;;;;;;5028279;28;20192;-74
2023/08/03 12:40:19;;;;;;;1.40;0.80;;;24.20;99.90;;;;;;5028359;28;20187;-75
2023/08/03 12:42:45;;;;;;;2.92;1.50;;;24.30;99.90;;;;;;5026811;28;20203;-74
2023/08/03 12:45:10;;;;;;;1.63;0.88;;;24.60;99.90;;;;;;5028181;28;20204;-75